sensor_id;sensor_type;location;lat;lon;timestamp;temperature;humidity
25058;DHT22;13057;50.978;11.034;2023-02-28T00:00:11;2.10;99.90
25058;DHT22;13057;50.978;11.034;2023-02-28T00:02:38;2.10;99.90
25058;DHT22;13057;50.978;11.034;2023-02-28T00:05:06;2.10;99.90
25058;DHT22;13057;50.978;11.034;2023-02-28T00:07:33;2.10;99.90
25058;DHT22;13057;50.978;11.034;2023-02-28T00:10:00;2.00;99.90
25058;DHT22;13057;50.978;11.034;2023-02-28T00:12:26;2.00;99.90
25058;DHT22;13057;50.978;11.034;2023-02-28T00:14:52;2.00;99.90
25058;DHT22;13057;50.978;11.034;2023-02-28T00:17:19;1.90;99.90
25058;DHT22;13057;50.978;11.034;2023-02-28T00:19:47;1.90;99.90
25058;DHT22;13057;50.978;11.034;2023-02-28T00:22:15;1.90;99.90
25058;DHT22;13057;50.978;11.034;2023-02-28T00:24:41;1.90;99.90
25058;DHT22;13057;50.978;11.034;2023-02-28T00:27:07;2.00;99.90
25058;DHT22;13057;50.978;11.034;2023-02-28T00:29:33;2.00;99.90
25058;DHT22;13057;50.978;11.034;2023-02-28T00:31:59;2.00;99.90
25058;DHT22;13057;50.978;11.034;2023-02-28T00:34:25;2.00;99.90
25058;DHT22;13057;50.978;11.034;2023-02-28T00:36:50;2.10;99.90
25058;DHT22;13057;50.978;11.034;2023-02-28T00:39:16;2.00;99.90
25058;DHT22;13057;50.978;11.034;2023-02-28T00:41:42;2.00;99.90
25058;DHT22;13057;50.978;11.034;2023-02-28T00:44:08;2.00;99.90
25058;DHT22;13057;50.978;11.034;2023-02-28T00:46:34;1.90;99.90
25058;DHT22;13057;50.978;11.034;2023-02-28T00:49:00;1.90;99.90
25058;DHT22;13057;50.978;11.034;2023-02-28T00:51:26;1.90;99.90
25058;DHT22;13057;50.978;11.034;2023-02-28T00:53:52;1.90;99.90
25058;DHT22;13057;50.978;11.034;2023-02-28T00:56:18;1.90;99.90
25058;DHT22;13057;50.978;11.034;2023-02-28T00:58:44;1.90;99.90
25058;DHT22;13057;50.978;11.034;2023-02-28T01:01:09;2.00;99.90
25058;DHT22;13057;50.978;11.034;2023-02-28T01:03:36;2.00;99.90
25058;DHT22;13057;50.978;11.034;2023-02-28T01:06:02;2.00;99.90
25058;DHT22;13057;50.978;11.034;2023-02-28T01:08:28;2.00;99.90
25058;DHT22;13057;50.978;11.034;2023-02-28T01:10:54;2.00;99.90
25058;DHT22;13057;50.978;11.034;2023-02-28T01:13:20;2.00;99.90
25058;DHT22;13057;50.978;11.034;2023-02-28T01:15:50;1.90;99.90
25058;DHT22;13057;50.978;11.034;2023-02-28T01:18:17;1.90;99.90
25058;DHT22;13057;50.978;11.034;2023-02-28T01:20:42;1.90;99.90
25058;DHT22;13057;50.978;11.034;2023-02-28T01:23:09;1.90;99.90
25058;DHT22;13057;50.978;11.034;2023-02-28T01:25:36;1.90;99.90
25058;DHT22;13057;50.978;11.034;2023-02-28T01:28:02;1.90;99.90
25058;DHT22;13057;50.978;11.034;2023-02-28T01:30:27;2.00;99.90
25058;DHT22;13057;50.978;11.034;2023-02-28T01:32:53;1.90;99.90
25058;DHT22;13057;50.978;11.034;2023-02-28T01:35:19;1.90;99.90
25058;DHT22;13057;50.978;11.034;2023-02-28T01:37:46;1.90;99.90
25058;DHT22;13057;50.978;11.034;2023-02-28T01:40:12;2.00;99.90
25058;DHT22;13057;50.978;11.034;2023-02-28T01:42:38;2.00;99.90
25058;DHT22;13057;50.978;11.034;2023-02-28T01:45:23;2.00;99.90
25058;DHT22;13057;50.978;11.034;2023-02-28T01:47:54;2.00;99.90
25058;DHT22;13057;50.978;11.034;2023-02-28T01:50:26;1.90;99.90
25058;DHT22;13057;50.978;11.034;2023-02-28T01:52:56;1.90;99.90
25058;DHT22;13057;50.978;11.034;2023-02-28T01:55:24;2.00;99.90
25058;DHT22;13057;50.978;11.034;2023-02-28T01:57:56;1.90;99.90
25058;DHT22;13057;50.978;11.034;2023-02-28T02:00:25;1.90;99.90
25058;DHT22;13057;50.978;11.034;2023-02-28T02:02:57;2.00;99.90
25058;DHT22;13057;50.978;11.034;2023-02-28T02:05:26;2.00;99.90
25058;DHT22;13057;50.978;11.034;2023-02-28T02:07:55;2.00;99.90
25058;DHT22;13057;50.978;11.034;2023-02-28T02:10:29;2.00;99.90
25058;DHT22;13057;50.978;11.034;2023-02-28T02:16:00;2.00;99.90
25058;DHT22;13057;50.978;11.034;2023-02-28T02:24:49;1.90;99.90
25058;DHT22;13057;50.978;11.034;2023-02-28T02:27:22;1.90;99.90
25058;DHT22;13057;50.978;11.034;2023-02-28T02:30:13;1.90;99.90
25058;DHT22;13057;50.978;11.034;2023-02-28T02:33:05;2.00;99.90
25058;DHT22;13057;50.978;11.034;2023-02-28T02:35:43;2.00;99.90
25058;DHT22;13057;50.978;11.034;2023-02-28T02:38:27;1.90;99.90
25058;DHT22;13057;50.978;11.034;2023-02-28T02:41:09;2.00;99.90
25058;DHT22;13057;50.978;11.034;2023-02-28T02:43:48;2.00;99.90
25058;DHT22;13057;50.978;11.034;2023-02-28T02:46:20;1.90;99.90
25058;DHT22;13057;50.978;11.034;2023-02-28T02:48:48;1.90;99.90
25058;DHT22;13057;50.978;11.034;2023-02-28T02:51:17;1.90;99.90
25058;DHT22;13057;50.978;11.034;2023-02-28T02:53:49;1.90;99.90
25058;DHT22;13057;50.978;11.034;2023-02-28T02:56:19;2.00;99.90
25058;DHT22;13057;50.978;11.034;2023-02-28T02:58:47;2.00;99.90
25058;DHT22;13057;50.978;11.034;2023-02-28T03:01:19;2.00;99.90
25058;DHT22;13057;50.978;11.034;2023-02-28T03:03:58;2.00;99.90
25058;DHT22;13057;50.978;11.034;2023-02-28T03:06:25;2.00;99.90
25058;DHT22;13057;50.978;11.034;2023-02-28T03:08:51;2.00;99.90
25058;DHT22;13057;50.978;11.034;2023-02-28T03:11:18;2.00;99.90
25058;DHT22;13057;50.978;11.034;2023-02-28T03:13:54;2.00;99.90
25058;DHT22;13057;50.978;11.034;2023-02-28T03:19:28;2.00;99.90
25058;DHT22;13057;50.978;11.034;2023-02-28T03:22:14;2.00;99.90
25058;DHT22;13057;50.978;11.034;2023-02-28T03:24:57;2.10;99.90
25058;DHT22;13057;50.978;11.034;2023-02-28T03:27:30;2.00;99.90
25058;DHT22;13057;50.978;11.034;2023-02-28T03:30:05;2.00;99.90
25058;DHT22;13057;50.978;11.034;2023-02-28T03:32:38;2.00;99.90
25058;DHT22;13057;50.978;11.034;2023-02-28T03:35:12;2.10;99.90
25058;DHT22;13057;50.978;11.034;2023-02-28T03:37:42;2.10;99.90
25058;DHT22;13057;50.978;11.034;2023-02-28T03:40:14;2.10;99.90
25058;DHT22;13057;50.978;11.034;2023-02-28T03:42:45;2.10;99.90
25058;DHT22;13057;50.978;11.034;2023-02-28T03:45:19;2.10;99.90
25058;DHT22;13057;50.978;11.034;2023-02-28T03:47:54;2.10;99.90
25058;DHT22;13057;50.978;11.034;2023-02-28T03:50:24;2.10;99.90
25058;DHT22;13057;50.978;11.034;2023-02-28T03:53:07;2.10;99.90
25058;DHT22;13057;50.978;11.034;2023-02-28T03:55:39;2.20;99.90
25058;DHT22;13057;50.978;11.034;2023-02-28T03:58:20;2.20;99.90
25058;DHT22;13057;50.978;11.034;2023-02-28T04:00:53;2.20;99.90
25058;DHT22;13057;50.978;11.034;2023-02-28T04:03:20;2.20;99.90
25058;DHT22;13057;50.978;11.034;2023-02-28T04:05:52;2.30;99.90
25058;DHT22;13057;50.978;11.034;2023-02-28T04:08:19;2.30;99.90
25058;DHT22;13057;50.978;11.034;2023-02-28T04:10:51;2.30;99.90
25058;DHT22;13057;50.978;11.034;2023-02-28T04:13:17;2.30;99.90
25058;DHT22;13057;50.978;11.034;2023-02-28T04:15:42;2.30;99.90
25058;DHT22;13057;50.978;11.034;2023-02-28T04:18:08;2.30;99.90
25058;DHT22;13057;50.978;11.034;2023-02-28T04:20:34;2.20;99.90
25058;DHT22;13057;50.978;11.034;2023-02-28T04:23:00;2.20;99.90
25058;DHT22;13057;50.978;11.034;2023-02-28T04:25:26;2.20;99.90
25058;DHT22;13057;50.978;11.034;2023-02-28T04:27:52;2.20;99.90
25058;DHT22;13057;50.978;11.034;2023-02-28T04:30:18;2.20;99.90
25058;DHT22;13057;50.978;11.034;2023-02-28T04:32:43;2.10;99.90
25058;DHT22;13057;50.978;11.034;2023-02-28T04:35:09;2.10;99.90
25058;DHT22;13057;50.978;11.034;2023-02-28T04:37:35;2.10;99.90
25058;DHT22;13057;50.978;11.034;2023-02-28T04:40:03;2.10;99.90
25058;DHT22;13057;50.978;11.034;2023-02-28T04:42:29;2.10;99.90
25058;DHT22;13057;50.978;11.034;2023-02-28T04:45:02;2.10;99.90
25058;DHT22;13057;50.978;11.034;2023-02-28T04:47:28;2.10;99.90
25058;DHT22;13057;50.978;11.034;2023-02-28T04:49:54;2.00;99.90
25058;DHT22;13057;50.978;11.034;2023-02-28T04:52:20;2.00;99.90
25058;DHT22;13057;50.978;11.034;2023-02-28T04:54:46;1.90;99.90
25058;DHT22;13057;50.978;11.034;2023-02-28T04:57:11;2.00;99.90
25058;DHT22;13057;50.978;11.034;2023-02-28T04:59:37;2.00;99.90
25058;DHT22;13057;50.978;11.034;2023-02-28T05:02:04;2.10;99.90
25058;DHT22;13057;50.978;11.034;2023-02-28T05:04:34;2.10;99.90
25058;DHT22;13057;50.978;11.034;2023-02-28T05:07:01;2.10;99.90
25058;DHT22;13057;50.978;11.034;2023-02-28T05:09:27;2.00;99.90
25058;DHT22;13057;50.978;11.034;2023-02-28T05:11:54;2.00;99.90
25058;DHT22;13057;50.978;11.034;2023-02-28T05:14:21;2.00;99.90
25058;DHT22;13057;50.978;11.034;2023-02-28T05:16:46;2.00;99.90
25058;DHT22;13057;50.978;11.034;2023-02-28T05:19:12;2.00;99.90
25058;DHT22;13057;50.978;11.034;2023-02-28T05:21:51;2.00;99.90
25058;DHT22;13057;50.978;11.034;2023-02-28T05:24:17;2.00;99.90
25058;DHT22;13057;50.978;11.034;2023-02-28T05:26:48;2.00;99.90
25058;DHT22;13057;50.978;11.034;2023-02-28T05:29:15;1.90;99.90
25058;DHT22;13057;50.978;11.034;2023-02-28T05:31:41;1.80;99.90
25058;DHT22;13057;50.978;11.034;2023-02-28T05:34:07;1.90;99.90
25058;DHT22;13057;50.978;11.034;2023-02-28T05:36:33;1.80;99.90
25058;DHT22;13057;50.978;11.034;2023-02-28T05:38:59;1.80;99.90
25058;DHT22;13057;50.978;11.034;2023-02-28T05:41:25;1.80;99.90
25058;DHT22;13057;50.978;11.034;2023-02-28T05:43:51;1.80;99.90
25058;DHT22;13057;50.978;11.034;2023-02-28T05:46:17;1.70;99.90
25058;DHT22;13057;50.978;11.034;2023-02-28T05:48:46;1.70;99.90
25058;DHT22;13057;50.978;11.034;2023-02-28T05:51:12;1.70;99.90
25058;DHT22;13057;50.978;11.034;2023-02-28T05:53:38;1.70;99.90
25058;DHT22;13057;50.978;11.034;2023-02-28T05:56:04;1.70;99.90
25058;DHT22;13057;50.978;11.034;2023-02-28T05:58:30;1.70;99.90
25058;DHT22;13057;50.978;11.034;2023-02-28T06:00:58;1.70;99.90
25058;DHT22;13057;50.978;11.034;2023-02-28T06:03:24;1.70;99.90
25058;DHT22;13057;50.978;11.034;2023-02-28T06:05:50;1.70;99.90
25058;DHT22;13057;50.978;11.034;2023-02-28T06:08:16;1.70;99.90
25058;DHT22;13057;50.978;11.034;2023-02-28T06:10:42;1.70;99.90
25058;DHT22;13057;50.978;11.034;2023-02-28T06:13:08;1.70;99.90
25058;DHT22;13057;50.978;11.034;2023-02-28T06:15:34;1.70;99.90
25058;DHT22;13057;50.978;11.034;2023-02-28T06:18:00;1.70;99.90
25058;DHT22;13057;50.978;11.034;2023-02-28T06:20:27;1.70;99.90
25058;DHT22;13057;50.978;11.034;2023-02-28T06:22:56;1.70;99.90
25058;DHT22;13057;50.978;11.034;2023-02-28T06:25:24;1.70;99.90
25058;DHT22;13057;50.978;11.034;2023-02-28T06:27:50;1.70;99.90
25058;DHT22;13057;50.978;11.034;2023-02-28T06:30:16;1.70;99.90
25058;DHT22;13057;50.978;11.034;2023-02-28T06:32:42;1.70;99.90
25058;DHT22;13057;50.978;11.034;2023-02-28T06:35:09;1.70;99.90
25058;DHT22;13057;50.978;11.034;2023-02-28T06:37:35;1.60;99.90
25058;DHT22;13057;50.978;11.034;2023-02-28T06:40:02;1.70;99.90
25058;DHT22;13057;50.978;11.034;2023-02-28T06:42:28;1.70;99.90
25058;DHT22;13057;50.978;11.034;2023-02-28T06:44:56;1.60;99.90
25058;DHT22;13057;50.978;11.034;2023-02-28T06:47:23;1.60;99.90
25058;DHT22;13057;50.978;11.034;2023-02-28T06:49:49;1.60;99.90
25058;DHT22;13057;50.978;11.034;2023-02-28T06:52:15;1.70;99.90
25058;DHT22;13057;50.978;11.034;2023-02-28T06:54:41;1.70;99.90
25058;DHT22;13057;50.978;11.034;2023-02-28T06:57:07;1.80;99.90
25058;DHT22;13057;50.978;11.034;2023-02-28T06:59:33;1.70;99.90
25058;DHT22;13057;50.978;11.034;2023-02-28T07:02:00;1.70;99.90
25058;DHT22;13057;50.978;11.034;2023-02-28T07:04:29;1.80;99.90
25058;DHT22;13057;50.978;11.034;2023-02-28T07:06:55;1.80;99.90
25058;DHT22;13057;50.978;11.034;2023-02-28T07:09:22;1.70;99.90
25058;DHT22;13057;50.978;11.034;2023-02-28T07:11:48;1.70;99.90
25058;DHT22;13057;50.978;11.034;2023-02-28T07:14:14;1.70;99.90
25058;DHT22;13057;50.978;11.034;2023-02-28T07:16:40;1.70;99.90
25058;DHT22;13057;50.978;11.034;2023-02-28T07:19:06;1.60;99.90
25058;DHT22;13057;50.978;11.034;2023-02-28T07:21:32;1.60;99.90
25058;DHT22;13057;50.978;11.034;2023-02-28T07:23:58;1.60;99.90
25058;DHT22;13057;50.978;11.034;2023-02-28T07:26:24;1.60;99.90
25058;DHT22;13057;50.978;11.034;2023-02-28T07:28:50;1.60;99.90
25058;DHT22;13057;50.978;11.034;2023-02-28T07:31:16;1.60;99.90
25058;DHT22;13057;50.978;11.034;2023-02-28T07:33:43;1.70;99.90
25058;DHT22;13057;50.978;11.034;2023-02-28T07:36:12;1.60;99.90
25058;DHT22;13057;50.978;11.034;2023-02-28T07:38:41;1.60;99.90
25058;DHT22;13057;50.978;11.034;2023-02-28T07:41:08;1.60;99.90
25058;DHT22;13057;50.978;11.034;2023-02-28T07:43:34;1.70;99.90
25058;DHT22;13057;50.978;11.034;2023-02-28T07:46:04;1.70;99.90
25058;DHT22;13057;50.978;11.034;2023-02-28T07:48:31;1.60;99.90
25058;DHT22;13057;50.978;11.034;2023-02-28T07:50:57;1.70;99.90
25058;DHT22;13057;50.978;11.034;2023-02-28T07:53:24;1.70;99.90
25058;DHT22;13057;50.978;11.034;2023-02-28T07:55:50;1.70;99.90
25058;DHT22;13057;50.978;11.034;2023-02-28T07:58:15;1.70;99.90
25058;DHT22;13057;50.978;11.034;2023-02-28T08:00:41;1.80;99.90
25058;DHT22;13057;50.978;11.034;2023-02-28T08:03:11;1.80;99.90
25058;DHT22;13057;50.978;11.034;2023-02-28T08:05:39;1.90;99.90
25058;DHT22;13057;50.978;11.034;2023-02-28T08:08:06;2.20;99.90
25058;DHT22;13057;50.978;11.034;2023-02-28T08:10:35;2.30;99.90
25058;DHT22;13057;50.978;11.034;2023-02-28T08:13:02;2.40;99.90
25058;DHT22;13057;50.978;11.034;2023-02-28T08:15:28;2.50;99.90
25058;DHT22;13057;50.978;11.034;2023-02-28T08:17:53;2.50;99.90
25058;DHT22;13057;50.978;11.034;2023-02-28T08:20:22;2.50;99.90
25058;DHT22;13057;50.978;11.034;2023-02-28T08:22:49;2.50;99.90
25058;DHT22;13057;50.978;11.034;2023-02-28T08:25:15;2.60;99.90
25058;DHT22;13057;50.978;11.034;2023-02-28T08:27:41;2.60;99.90
25058;DHT22;13057;50.978;11.034;2023-02-28T08:30:09;2.70;99.90
25058;DHT22;13057;50.978;11.034;2023-02-28T08:32:36;2.70;99.70
25058;DHT22;13057;50.978;11.034;2023-02-28T08:35:02;2.70;99.30
25058;DHT22;13057;50.978;11.034;2023-02-28T08:37:28;2.80;98.50
25058;DHT22;13057;50.978;11.034;2023-02-28T08:39:54;2.70;98.40
25058;DHT22;13057;50.978;11.034;2023-02-28T08:42:20;2.80;98.30
25058;DHT22;13057;50.978;11.034;2023-02-28T08:44:46;2.80;97.60
25058;DHT22;13057;50.978;11.034;2023-02-28T08:47:12;2.80;97.40
25058;DHT22;13057;50.978;11.034;2023-02-28T08:49:38;2.80;97.80
25058;DHT22;13057;50.978;11.034;2023-02-28T08:52:04;2.70;98.00
25058;DHT22;13057;50.978;11.034;2023-02-28T08:54:30;2.70;97.80
25058;DHT22;13057;50.978;11.034;2023-02-28T08:56:57;2.90;98.20
25058;DHT22;13057;50.978;11.034;2023-02-28T08:59:23;3.10;97.40
25058;DHT22;13057;50.978;11.034;2023-02-28T09:01:49;3.30;97.20
25058;DHT22;13057;50.978;11.034;2023-02-28T09:04:15;3.20;95.60
25058;DHT22;13057;50.978;11.034;2023-02-28T09:06:41;3.10;95.50
25058;DHT22;13057;50.978;11.034;2023-02-28T09:09:06;3.10;95.30
25058;DHT22;13057;50.978;11.034;2023-02-28T09:11:33;3.10;95.20
25058;DHT22;13057;50.978;11.034;2023-02-28T09:14:00;3.20;95.70
25058;DHT22;13057;50.978;11.034;2023-02-28T09:16:28;3.30;95.50
25058;DHT22;13057;50.978;11.034;2023-02-28T09:18:55;3.40;95.20
25058;DHT22;13057;50.978;11.034;2023-02-28T09:21:20;3.60;95.40
25058;DHT22;13057;50.978;11.034;2023-02-28T09:23:48;4.00;95.20
25058;DHT22;13057;50.978;11.034;2023-02-28T09:26:16;4.40;94.30
25058;DHT22;13057;50.978;11.034;2023-02-28T09:28:43;4.50;93.40
25058;DHT22;13057;50.978;11.034;2023-02-28T09:31:15;4.60;93.70
25058;DHT22;13057;50.978;11.034;2023-02-28T09:33:41;4.50;92.40
25058;DHT22;13057;50.978;11.034;2023-02-28T09:36:07;4.50;92.50
25058;DHT22;13057;50.978;11.034;2023-02-28T09:38:33;4.50;92.00
25058;DHT22;13057;50.978;11.034;2023-02-28T09:41:01;4.40;91.90
25058;DHT22;13057;50.978;11.034;2023-02-28T09:43:34;4.40;92.30
25058;DHT22;13057;50.978;11.034;2023-02-28T09:49:02;4.20;92.50
25058;DHT22;13057;50.978;11.034;2023-02-28T09:51:45;4.40;91.80
25058;DHT22;13057;50.978;11.034;2023-02-28T09:54:20;4.40;91.70
25058;DHT22;13057;50.978;11.034;2023-02-28T09:56:55;4.40;91.20
25058;DHT22;13057;50.978;11.034;2023-02-28T09:59:49;4.50;90.70
25058;DHT22;13057;50.978;11.034;2023-02-28T10:05:19;4.50;89.80
25058;DHT22;13057;50.978;11.034;2023-02-28T10:08:09;4.40;89.70
25058;DHT22;13057;50.978;11.034;2023-02-28T10:10:41;4.50;90.70
25058;DHT22;13057;50.978;11.034;2023-02-28T10:13:17;4.90;90.60
25058;DHT22;13057;50.978;11.034;2023-02-28T10:15:51;5.00;88.90
25058;DHT22;13057;50.978;11.034;2023-02-28T10:18:21;5.10;90.00
25058;DHT22;13057;50.978;11.034;2023-02-28T10:20:49;5.20;88.60
25058;DHT22;13057;50.978;11.034;2023-02-28T10:23:21;5.30;90.00
25058;DHT22;13057;50.978;11.034;2023-02-28T10:25:54;5.40;89.50
25058;DHT22;13057;50.978;11.034;2023-02-28T10:28:21;5.40;88.40
25058;DHT22;13057;50.978;11.034;2023-02-28T10:30:52;5.50;88.00
25058;DHT22;13057;50.978;11.034;2023-02-28T10:33:23;5.30;86.70
25058;DHT22;13057;50.978;11.034;2023-02-28T10:35:52;5.20;86.60
25058;DHT22;13057;50.978;11.034;2023-02-28T10:38:23;5.20;87.80
25058;DHT22;13057;50.978;11.034;2023-02-28T10:40:50;5.20;88.40
25058;DHT22;13057;50.978;11.034;2023-02-28T10:43:20;5.30;87.70
25058;DHT22;13057;50.978;11.034;2023-02-28T10:46:00;5.20;87.00
25058;DHT22;13057;50.978;11.034;2023-02-28T10:48:32;5.30;87.10
25058;DHT22;13057;50.978;11.034;2023-02-28T10:50:59;5.30;87.10
25058;DHT22;13057;50.978;11.034;2023-02-28T10:53:31;5.20;86.50
25058;DHT22;13057;50.978;11.034;2023-02-28T10:56:05;5.30;88.80
25058;DHT22;13057;50.978;11.034;2023-02-28T11:01:34;5.30;86.00
25058;DHT22;13057;50.978;11.034;2023-02-28T11:04:01;5.40;87.20
25058;DHT22;13057;50.978;11.034;2023-02-28T11:06:31;5.50;87.20
25058;DHT22;13057;50.978;11.034;2023-02-28T11:09:03;5.60;85.80
25058;DHT22;13057;50.978;11.034;2023-02-28T11:11:31;5.70;86.20
25058;DHT22;13057;50.978;11.034;2023-02-28T11:14:20;5.50;85.80
25058;DHT22;13057;50.978;11.034;2023-02-28T11:16:47;5.20;86.60
25058;DHT22;13057;50.978;11.034;2023-02-28T11:19:25;5.00;86.50
25058;DHT22;13057;50.978;11.034;2023-02-28T11:21:58;4.70;86.50
25058;DHT22;13057;50.978;11.034;2023-02-28T11:24:31;4.80;88.20
25058;DHT22;13057;50.978;11.034;2023-02-28T11:27:00;5.00;89.10
25058;DHT22;13057;50.978;11.034;2023-02-28T11:29:29;5.30;87.40
25058;DHT22;13057;50.978;11.034;2023-02-28T11:32:13;5.30;86.10
25058;DHT22;13057;50.978;11.034;2023-02-28T11:34:42;5.30;86.70
25058;DHT22;13057;50.978;11.034;2023-02-28T11:37:15;5.50;87.10
25058;DHT22;13057;50.978;11.034;2023-02-28T11:39:44;5.60;86.70
25058;DHT22;13057;50.978;11.034;2023-02-28T11:42:43;5.60;86.50
25058;DHT22;13057;50.978;11.034;2023-02-28T11:45:30;5.40;86.40
25058;DHT22;13057;50.978;11.034;2023-02-28T11:48:20;5.40;86.20
25058;DHT22;13057;50.978;11.034;2023-02-28T11:50:59;5.30;85.80
25058;DHT22;13057;50.978;11.034;2023-02-28T11:56:41;5.00;86.30
25058;DHT22;13057;50.978;11.034;2023-02-28T11:59:26;5.00;86.90
25058;DHT22;13057;50.978;11.034;2023-02-28T12:02:20;5.00;86.60
25058;DHT22;13057;50.978;11.034;2023-02-28T12:08:15;4.70;87.10
25058;DHT22;13057;50.978;11.034;2023-02-28T12:10:57;4.70;87.20
25058;DHT22;13057;50.978;11.034;2023-02-28T12:13:34;4.70;87.90
25058;DHT22;13057;50.978;11.034;2023-02-28T12:16:29;4.70;87.90
25058;DHT22;13057;50.978;11.034;2023-02-28T12:19:16;4.80;88.40
25058;DHT22;13057;50.978;11.034;2023-02-28T12:22:00;4.90;88.60
25058;DHT22;13057;50.978;11.034;2023-02-28T12:24:38;4.80;87.30
25058;DHT22;13057;50.978;11.034;2023-02-28T12:27:11;4.80;87.90
25058;DHT22;13057;50.978;11.034;2023-02-28T12:29:50;4.80;87.50
25058;DHT22;13057;50.978;11.034;2023-02-28T12:32:21;4.70;88.10
25058;DHT22;13057;50.978;11.034;2023-02-28T12:34:56;4.60;88.40
25058;DHT22;13057;50.978;11.034;2023-02-28T12:37:29;4.60;89.30
25058;DHT22;13057;50.978;11.034;2023-02-28T12:40:02;4.60;89.50
25058;DHT22;13057;50.978;11.034;2023-02-28T12:42:37;4.60;88.40
25058;DHT22;13057;50.978;11.034;2023-02-28T12:45:14;4.60;89.20
25058;DHT22;13057;50.978;11.034;2023-02-28T12:47:44;4.50;89.60
25058;DHT22;13057;50.978;11.034;2023-02-28T12:50:12;4.50;88.70
25058;DHT22;13057;50.978;11.034;2023-02-28T12:55:58;4.40;88.90
25058;DHT22;13057;50.978;11.034;2023-02-28T12:58:45;4.40;89.30
25058;DHT22;13057;50.978;11.034;2023-02-28T13:01:28;4.30;90.00
25058;DHT22;13057;50.978;11.034;2023-02-28T13:04:21;4.40;90.00
25058;DHT22;13057;50.978;11.034;2023-02-28T13:07:19;4.50;90.50
25058;DHT22;13057;50.978;11.034;2023-02-28T13:09:56;4.60;90.50
25058;DHT22;13057;50.978;11.034;2023-02-28T13:12:22;4.70;90.20
25058;DHT22;13057;50.978;11.034;2023-02-28T13:14:50;4.80;90.20
25058;DHT22;13057;50.978;11.034;2023-02-28T13:17:20;4.60;89.10
25058;DHT22;13057;50.978;11.034;2023-02-28T13:19:57;4.60;89.60
25058;DHT22;13057;50.978;11.034;2023-02-28T13:22:41;4.70;89.80
25058;DHT22;13057;50.978;11.034;2023-02-28T13:28:11;4.70;89.70
25058;DHT22;13057;50.978;11.034;2023-02-28T13:33:35;4.70;89.60
25058;DHT22;13057;50.978;11.034;2023-02-28T13:36:29;4.70;89.80
25058;DHT22;13057;50.978;11.034;2023-02-28T13:38:58;4.70;90.00
25058;DHT22;13057;50.978;11.034;2023-02-28T13:41:44;4.70;90.00
25058;DHT22;13057;50.978;11.034;2023-02-28T13:44:16;4.70;89.90
25058;DHT22;13057;50.978;11.034;2023-02-28T13:49:50;4.70;90.10
25058;DHT22;13057;50.978;11.034;2023-02-28T13:52:20;4.70;90.00
25058;DHT22;13057;50.978;11.034;2023-02-28T13:57:58;4.80;89.80
25058;DHT22;13057;50.978;11.034;2023-02-28T14:03:38;4.90;89.80
25058;DHT22;13057;50.978;11.034;2023-02-28T14:06:15;4.80;89.10
25058;DHT22;13057;50.978;11.034;2023-02-28T14:11:40;4.80;89.60
25058;DHT22;13057;50.978;11.034;2023-02-28T14:14:08;4.80;89.90
25058;DHT22;13057;50.978;11.034;2023-02-28T14:16:46;4.80;90.10
25058;DHT22;13057;50.978;11.034;2023-02-28T14:19:26;4.80;90.00
25058;DHT22;13057;50.978;11.034;2023-02-28T14:22:19;4.90;90.20
25058;DHT22;13057;50.978;11.034;2023-02-28T14:25:21;4.90;90.50
25058;DHT22;13057;50.978;11.034;2023-02-28T14:28:10;4.90;91.10
25058;DHT22;13057;50.978;11.034;2023-02-28T14:30:52;5.00;90.90
25058;DHT22;13057;50.978;11.034;2023-02-28T14:36:14;5.00;90.60
25058;DHT22;13057;50.978;11.034;2023-02-28T14:38:45;5.00;90.60
25058;DHT22;13057;50.978;11.034;2023-02-28T14:41:18;5.00;90.10
25058;DHT22;13057;50.978;11.034;2023-02-28T14:43:56;5.00;90.40
25058;DHT22;13057;50.978;11.034;2023-02-28T14:46:28;5.00;90.40
25058;DHT22;13057;50.978;11.034;2023-02-28T14:48:56;5.00;90.20
25058;DHT22;13057;50.978;11.034;2023-02-28T14:51:24;5.00;90.20
25058;DHT22;13057;50.978;11.034;2023-02-28T14:54:01;5.10;90.30
25058;DHT22;13057;50.978;11.034;2023-02-28T14:56:37;5.10;90.50
25058;DHT22;13057;50.978;11.034;2023-02-28T14:59:17;5.10;90.50
25058;DHT22;13057;50.978;11.034;2023-02-28T15:01:49;5.00;90.70
25058;DHT22;13057;50.978;11.034;2023-02-28T15:04:24;4.90;90.70
25058;DHT22;13057;50.978;11.034;2023-02-28T15:07:09;4.80;90.80
25058;DHT22;13057;50.978;11.034;2023-02-28T15:09:36;4.80;90.80
25058;DHT22;13057;50.978;11.034;2023-02-28T15:12:03;4.80;90.90
25058;DHT22;13057;50.978;11.034;2023-02-28T15:14:31;4.80;90.80
25058;DHT22;13057;50.978;11.034;2023-02-28T15:17:02;4.80;91.10
25058;DHT22;13057;50.978;11.034;2023-02-28T15:19:39;4.80;91.10
25058;DHT22;13057;50.978;11.034;2023-02-28T15:22:19;4.90;90.80
25058;DHT22;13057;50.978;11.034;2023-02-28T15:24:49;4.90;90.80
25058;DHT22;13057;50.978;11.034;2023-02-28T15:27:22;4.80;90.50
25058;DHT22;13057;50.978;11.034;2023-02-28T15:29:54;4.70;90.60
25058;DHT22;13057;50.978;11.034;2023-02-28T15:32:24;4.60;90.80
25058;DHT22;13057;50.978;11.034;2023-02-28T15:34:52;4.60;91.40
25058;DHT22;13057;50.978;11.034;2023-02-28T15:37:29;4.60;91.10
25058;DHT22;13057;50.978;11.034;2023-02-28T15:40:15;4.60;91.40
25058;DHT22;13057;50.978;11.034;2023-02-28T15:42:58;4.60;91.30
25058;DHT22;13057;50.978;11.034;2023-02-28T15:45:28;4.60;91.50
25058;DHT22;13057;50.978;11.034;2023-02-28T15:47:59;4.60;91.40
25058;DHT22;13057;50.978;11.034;2023-02-28T15:50:30;4.70;91.60
25058;DHT22;13057;50.978;11.034;2023-02-28T15:53:00;4.80;91.60
25058;DHT22;13057;50.978;11.034;2023-02-28T15:55:29;4.70;91.70
25058;DHT22;13057;50.978;11.034;2023-02-28T15:58:00;4.80;92.10
25058;DHT22;13057;50.978;11.034;2023-02-28T16:00:28;4.80;91.80
25058;DHT22;13057;50.978;11.034;2023-02-28T16:02:53;4.70;92.00
25058;DHT22;13057;50.978;11.034;2023-02-28T16:05:27;4.70;91.90
25058;DHT22;13057;50.978;11.034;2023-02-28T16:07:57;4.50;91.90
25058;DHT22;13057;50.978;11.034;2023-02-28T16:10:24;4.50;92.40
25058;DHT22;13057;50.978;11.034;2023-02-28T16:12:55;4.50;92.20
25058;DHT22;13057;50.978;11.034;2023-02-28T16:15:24;4.50;92.20
25058;DHT22;13057;50.978;11.034;2023-02-28T16:17:52;4.40;92.30
25058;DHT22;13057;50.978;11.034;2023-02-28T16:20:21;4.40;92.40
25058;DHT22;13057;50.978;11.034;2023-02-28T16:22:48;4.40;92.70
25058;DHT22;13057;50.978;11.034;2023-02-28T16:25:16;4.30;92.50
25058;DHT22;13057;50.978;11.034;2023-02-28T16:27:44;4.40;93.00
25058;DHT22;13057;50.978;11.034;2023-02-28T16:30:20;4.40;93.00
25058;DHT22;13057;50.978;11.034;2023-02-28T16:32:48;4.40;92.80
25058;DHT22;13057;50.978;11.034;2023-02-28T16:35:14;4.30;93.00
25058;DHT22;13057;50.978;11.034;2023-02-28T16:37:40;4.30;92.80
25058;DHT22;13057;50.978;11.034;2023-02-28T16:40:13;4.30;93.00
25058;DHT22;13057;50.978;11.034;2023-02-28T16:42:40;4.20;93.00